Time;durP1;ratioP1;P1;durP2;ratioP2;P2;SDS_P1;SDS_P2;PMS_P1;PMS_P2;Temp;Humidity;BMP_temperature;BMP_pressure;BME280_temperature;BME280_humidity;BME280_pressure;Samples;Min_cycle;Max_cycle;Signal;HPM_P1;HPM_P2
2023/01/19 00:01:44;;;;;;;15.60;9.13;;;22.50;43.50;;;;;;6105581;28;81066;-48
2023/01/19 00:04:45;;;;;;;13.18;7.82;;;22.40;44.50;;;;;;6102741;28;81538;-50
2023/01/19 00:07:45;;;;;;;13.80;9.02;;;22.40;43.60;;;;;;6104052;28;80362;-47
2023/01/19 00:10:46;;;;;;;12.50;7.90;;;22.40;43.70;;;;;;6101263;28;80387;-49
2023/01/19 00:13:49;;;;;;;17.42;8.88;;;22.40;43.70;;;;;;6105475;28;81641;-56
2023/01/19 00:16:50;;;;;;;13.55;8.45;;;22.40;43.80;;;;;;6104451;28;80917;-54
2023/01/19 00:19:50;;;;;;;12.65;7.93;;;22.40;43.70;;;;;;6104525;28;80085;-57
2023/01/19 00:22:51;;;;;;;12.88;8.13;;;22.40;44.00;;;;;;6104384;28;80457;-56
2023/01/19 00:25:51;;;;;;;13.00;8.23;;;22.40;43.90;;;;;;6117106;28;80803;-57
2023/01/19 00:28:52;;;;;;;16.27;8.27;;;22.40;43.90;;;;;;6106219;28;80743;-57
2023/01/19 00:31:53;;;;;;;15.73;8.45;;;22.40;43.90;;;;;;6102299;28;80386;-59
2023/01/19 00:34:53;;;;;;;14.13;8.57;;;22.40;43.90;;;;;;6104274;28;82079;-58
2023/01/19 00:37:54;;;;;;;15.07;9.05;;;22.40;43.80;;;;;;6105141;28;80455;-59
2023/01/19 00:40:54;;;;;;;13.68;7.72;;;22.40;43.70;;;;;;6118325;28;81135;-59
2023/01/19 00:43:55;;;;;;;13.02;8.05;;;22.40;43.90;;;;;;6104523;28;80213;-59
2023/01/19 00:46:55;;;;;;;12.57;8.25;;;22.40;43.80;;;;;;6104789;28;80448;-59
2023/01/19 00:49:56;;;;;;;15.70;7.90;;;22.40;44.00;;;;;;6091357;28;80849;-59
2023/01/19 00:52:56;;;;;;;13.95;8.13;;;22.40;43.70;;;;;;6104566;28;81134;-60
2023/01/19 00:55:57;;;;;;;13.57;8.27;;;22.40;44.20;;;;;;6104067;28;80522;-58
2023/01/19 00:58:57;;;;;;;13.82;8.20;;;22.40;44.10;;;;;;6096537;28;80588;-59
2023/01/19 01:01:58;;;;;;;12.52;7.82;;;22.40;44.00;;;;;;6103947;28;80219;-59
2023/01/19 01:05:01;;;;;;;12.05;8.02;;;22.40;44.00;;;;;;6083343;28;82588;-58
2023/01/19 01:08:02;;;;;;;14.05;8.63;;;22.40;44.00;;;;;;6121950;28;83090;-59
2023/01/19 01:11:02;;;;;;;12.27;7.90;;;22.40;43.90;;;;;;6099889;28;83930;-58
2023/01/19 01:14:03;;;;;;;12.82;8.60;;;22.40;44.00;;;;;;6102610;28;81303;-59
2023/01/19 01:17:03;;;;;;;13.27;8.55;;;22.40;43.90;;;;;;6100389;28;81976;-58
2023/01/19 01:20:04;;;;;;;15.88;8.70;;;22.40;43.90;;;;;;6092870;28;81385;-60
2023/01/19 01:23:05;;;;;;;11.98;8.43;;;22.40;43.80;;;;;;6091345;28;80981;-58
2023/01/19 01:26:05;;;;;;;14.45;8.95;;;22.40;43.80;;;;;;6104101;28;80772;-57
2023/01/19 01:29:07;;;;;;;13.90;8.82;;;22.40;44.00;;;;;;6108271;28;80831;-59
2023/01/19 01:32:08;;;;;;;15.30;9.32;;;22.40;44.00;;;;;;6114876;28;80834;-58
2023/01/19 01:35:09;;;;;;;16.83;9.50;;;22.40;44.10;;;;;;6096073;28;80739;-59
2023/01/19 01:38:09;;;;;;;14.25;8.77;;;22.40;43.60;;;;;;6127552;28;80570;-59
2023/01/19 01:41:10;;;;;;;15.50;8.82;;;22.40;43.70;;;;;;6102968;28;80654;-58
2023/01/19 01:44:11;;;;;;;15.15;10.00;;;22.40;44.00;;;;;;6100729;28;83710;-59
2023/01/19 01:47:12;;;;;;;15.98;9.48;;;22.40;44.00;;;;;;6090616;28;83328;-60
2023/01/19 01:50:12;;;;;;;15.48;10.27;;;22.40;43.80;;;;;;6102689;28;82377;-60
2023/01/19 01:53:13;;;;;;;16.20;10.20;;;22.40;44.10;;;;;;6088833;28;85516;-60
2023/01/19 01:56:13;;;;;;;14.60;9.48;;;22.40;43.90;;;;;;6112442;28;83426;-60
2023/01/19 01:59:16;;;;;;;15.50;10.10;;;22.40;44.00;;;;;;6106921;28;82744;-59
2023/01/19 02:05:36;;;;;;;13.52;9.20;;;22.40;44.20;;;;;;6103732;28;81805;-61
2023/01/19 02:15:15;;;;;;;15.55;9.35;;;22.40;44.20;;;;;;6103619;28;82369;-60
2023/01/19 02:18:16;;;;;;;16.10;9.75;;;22.40;44.20;;;;;;6093987;28;80353;-61
2023/01/19 02:21:17;;;;;;;17.48;10.38;;;22.30;44.20;;;;;;6083379;28;81355;-60
2023/01/19 02:24:18;;;;;;;14.95;9.75;;;22.40;44.20;;;;;;6082421;28;88690;-61
2023/01/19 02:27:18;;;;;;;14.00;9.32;;;22.30;44.10;;;;;;6115429;28;81810;-60
2023/01/19 02:30:19;;;;;;;16.27;9.55;;;22.30;44.40;;;;;;6118795;28;81082;-61
2023/01/19 02:33:19;;;;;;;17.35;10.68;;;22.30;44.20;;;;;;6106794;28;80433;-61
2023/01/19 02:36:20;;;;;;;15.70;10.45;;;22.30;44.10;;;;;;6104408;28;82736;-60
2023/01/19 02:39:20;;;;;;;17.90;9.95;;;22.30;44.20;;;;;;6103607;28;83931;-60
2023/01/19 02:42:21;;;;;;;16.30;10.35;;;22.30;44.30;;;;;;6105689;28;83252;-60
2023/01/19 02:45:21;;;;;;;14.50;9.23;;;22.30;44.30;;;;;;6097613;28;83312;-60
2023/01/19 02:48:22;;;;;;;14.73;10.07;;;22.30;44.10;;;;;;6106514;28;83413;-61
2023/01/19 02:51:22;;;;;;;16.08;10.35;;;22.30;44.20;;;;;;6103053;28;85018;-61
2023/01/19 02:54:23;;;;;;;16.15;9.63;;;22.30;44.30;;;;;;6104098;28;84883;-61
2023/01/19 02:57:24;;;;;;;16.63;10.13;;;22.30;44.20;;;;;;6096386;28;83283;-51
2023/01/19 03:00:24;;;;;;;19.13;10.25;;;22.30;44.30;;;;;;6102416;28;83035;-48
2023/01/19 03:03:26;;;;;;;17.05;10.35;;;22.30;45.00;;;;;;6102718;28;83674;-47
2023/01/19 03:06:26;;;;;;;15.38;9.68;;;22.30;44.20;;;;;;6102531;28;84428;-48
2023/01/19 03:09:27;;;;;;;15.65;10.25;;;22.30;44.80;;;;;;6105493;28;81761;-51
2023/01/19 03:12:28;;;;;;;13.70;9.30;;;22.30;44.60;;;;;;6097004;28;83149;-53
2023/01/19 03:15:28;;;;;;;20.00;11.48;;;22.30;44.50;;;;;;6101737;28;83565;-59
2023/01/19 03:18:29;;;;;;;17.02;10.75;;;22.30;44.40;;;;;;6096226;28;84491;-58
2023/01/19 03:21:29;;;;;;;17.90;11.10;;;22.30;44.20;;;;;;6104077;28;83269;-61
2023/01/19 03:24:30;;;;;;;16.35;10.18;;;22.30;44.20;;;;;;6113236;28;83117;-59
2023/01/19 03:27:30;;;;;;;17.00;10.13;;;22.30;44.20;;;;;;6102330;28;83332;-60
2023/01/19 03:30:31;;;;;;;17.20;10.25;;;22.30;44.50;;;;;;6102321;28;83578;-58
2023/01/19 03:33:31;;;;;;;17.50;10.57;;;22.30;44.70;;;;;;6101403;28;84440;-58
2023/01/19 03:36:32;;;;;;;18.05;10.90;;;22.30;44.80;;;;;;6103584;28;82986;-59
2023/01/19 03:39:32;;;;;;;16.20;10.38;;;22.30;45.00;;;;;;6106900;28;83624;-61
2023/01/19 03:42:33;;;;;;;18.60;10.55;;;22.20;44.70;;;;;;6099177;28;90729;-59
2023/01/19 03:45:34;;;;;;;17.45;10.85;;;22.30;44.80;;;;;;6100976;28;82852;-59
2023/01/19 03:48:35;;;;;;;19.42;10.68;;;22.20;44.70;;;;;;6090902;28;87056;-58
2023/01/19 03:51:35;;;;;;;18.67;10.85;;;22.20;44.80;;;;;;6098654;28;83409;-60
2023/01/19 03:54:36;;;;;;;16.35;10.70;;;22.30;45.00;;;;;;6095304;28;83274;-59
2023/01/19 03:57:37;;;;;;;15.98;10.63;;;22.20;44.90;;;;;;6102577;28;85379;-60
2023/01/19 04:00:37;;;;;;;18.48;10.90;;;22.30;45.10;;;;;;6101864;28;84402;-60
2023/01/19 04:03:38;;;;;;;16.83;11.00;;;22.20;45.10;;;;;;6101055;28;83795;-60
2023/01/19 04:06:38;;;;;;;17.17;10.32;;;22.20;44.90;;;;;;6099122;28;83218;-60
2023/01/19 04:09:39;;;;;;;18.10;11.13;;;22.20;45.30;;;;;;6085316;28;89518;-59
2023/01/19 04:12:39;;;;;;;16.67;11.05;;;22.30;45.20;;;;;;6080001;28;84921;-47
2023/01/19 04:15:40;;;;;;;18.08;10.45;;;22.20;45.30;;;;;;6079550;28;87639;-50
2023/01/19 04:18:41;;;;;;;17.95;10.95;;;22.30;45.40;;;;;;6086896;28;82901;-49
2023/01/19 04:21:41;;;;;;;17.60;10.85;;;22.20;45.10;;;;;;6078224;28;85006;-49
2023/01/19 04:24:42;;;;;;;18.45;10.90;;;22.30;45.30;;;;;;6077813;28;84950;-47
2023/01/19 04:27:42;;;;;;;18.00;11.02;;;22.30;45.20;;;;;;6095668;28;89596;-52
2023/01/19 04:30:43;;;;;;;15.15;10.50;;;22.30;45.40;;;;;;6089108;28;90532;-58
2023/01/19 04:33:43;;;;;;;18.27;10.38;;;22.30;45.10;;;;;;6094159;28;82771;-59
2023/01/19 04:36:45;;;;;;;14.68;9.95;;;22.20;45.10;;;;;;6081718;28;83606;-58
2023/01/19 04:39:46;;;;;;;19.58;10.57;;;22.20;45.00;;;;;;6088064;28;83135;-57
2023/01/19 04:42:46;;;;;;;17.38;10.40;;;22.30;45.50;;;;;;6093408;28;83570;-57
2023/01/19 04:45:47;;;;;;;16.02;9.52;;;22.30;45.20;;;;;;6104391;28;83169;-58
2023/01/19 04:48:47;;;;;;;17.70;10.13;;;22.30;45.80;;;;;;6093194;28;83057;-57
2023/01/19 04:51:48;;;;;;;16.17;10.43;;;22.30;46.10;;;;;;6088677;28;84383;-58
2023/01/19 04:54:49;;;;;;;15.98;10.27;;;22.30;45.70;;;;;;6092683;28;83356;-58
2023/01/19 04:57:49;;;;;;;17.42;9.90;;;22.20;45.30;;;;;;6087371;28;83720;-58
2023/01/19 05:00:51;;;;;;;17.52;9.95;;;22.30;45.20;;;;;;6091036;28;82936;-58
2023/01/19 05:03:51;;;;;;;17.95;10.85;;;22.20;45.00;;;;;;6097443;28;80594;-59
2023/01/19 05:07:09;;;;;;;15.75;10.13;;;22.20;44.90;;;;;;6102500;28;82781;-59
2023/01/19 05:10:10;;;;;;;17.13;9.88;;;22.30;45.00;;;;;;6096412;28;84636;-59
2023/01/19 05:13:10;;;;;;;17.17;10.38;;;22.30;45.30;;;;;;6104724;28;82690;-59
2023/01/19 05:16:12;;;;;;;14.50;9.57;;;22.30;45.30;;;;;;6088668;28;83060;-58
2023/01/19 05:19:13;;;;;;;16.98;10.07;;;22.20;45.60;;;;;;6095228;28;87985;-58
2023/01/19 05:22:14;;;;;;;17.33;10.68;;;22.20;44.80;;;;;;6096747;28;83368;-59
2023/01/19 05:25:14;;;;;;;15.68;10.77;;;22.30;45.40;;;;;;6106427;28;83294;-57
2023/01/19 05:28:15;;;;;;;18.70;11.40;;;22.30;44.70;;;;;;6106879;28;83354;-58
2023/01/19 05:31:16;;;;;;;15.55;10.60;;;22.30;44.60;;;;;;6106074;28;84178;-58
2023/01/19 05:34:16;;;;;;;18.65;10.52;;;22.20;44.60;;;;;;6099537;28;85368;-57
2023/01/19 05:37:17;;;;;;;17.27;10.00;;;22.20;44.70;;;;;;6101370;28;83065;-57
2023/01/19 05:40:17;;;;;;;17.05;10.52;;;22.30;44.80;;;;;;6088466;28;83537;-59
2023/01/19 05:43:18;;;;;;;15.48;10.10;;;22.30;44.60;;;;;;6083633;28;83354;-57
2023/01/19 05:46:19;;;;;;;16.08;9.85;;;22.30;44.70;;;;;;6091809;28;83647;-58
2023/01/19 05:49:19;;;;;;;19.60;10.48;;;22.30;44.80;;;;;;6092272;28;83552;-58
2023/01/19 05:52:20;;;;;;;16.67;10.65;;;22.30;44.50;;;;;;6093259;28;83159;-59
2023/01/19 05:55:21;;;;;;;17.15;11.02;;;22.30;44.20;;;;;;6093219;28;83128;-58
2023/01/19 05:58:21;;;;;;;18.42;10.98;;;22.40;44.30;;;;;;6106827;28;83217;-57
2023/01/19 06:01:22;;;;;;;17.98;11.02;;;22.30;44.20;;;;;;6104389;28;83451;-59
2023/01/19 06:04:22;;;;;;;18.00;10.25;;;22.30;44.80;;;;;;6115403;28;83233;-57
2023/01/19 06:07:23;;;;;;;19.05;10.80;;;22.40;45.60;;;;;;6103804;28;90164;-58
2023/01/19 06:10:23;;;;;;;21.50;10.40;;;22.40;45.60;;;;;;6098701;28;83356;-58
2023/01/19 06:13:24;;;;;;;16.30;10.45;;;22.40;45.80;;;;;;6102497;28;84542;-58
2023/01/19 06:16:24;;;;;;;18.02;11.02;;;22.40;45.90;;;;;;6117526;28;82901;-57
2023/01/19 06:19:25;;;;;;;19.40;10.15;;;22.40;45.70;;;;;;6104369;28;83479;-56
2023/01/19 06:22:26;;;;;;;20.65;11.20;;;22.40;45.40;;;;;;6112907;28;83435;-58
2023/01/19 06:25:26;;;;;;;20.48;10.48;;;22.40;45.70;;;;;;6106481;28;84730;-57
2023/01/19 06:28:27;;;;;;;21.50;12.50;;;22.30;45.60;;;;;;6116957;28;83266;-57
2023/01/19 06:31:27;;;;;;;18.55;11.70;;;22.30;45.60;;;;;;6103372;28;83409;-57
2023/01/19 06:34:28;;;;;;;19.67;11.93;;;22.30;46.20;;;;;;6105947;28;83912;-58
2023/01/19 06:37:29;;;;;;;18.35;11.68;;;22.40;47.10;;;;;;6113895;28;83630;-57
2023/01/19 06:40:30;;;;;;;19.98;11.73;;;22.30;47.00;;;;;;6098413;28;83278;-58
2023/01/19 06:43:30;;;;;;;20.75;11.90;;;22.30;46.30;;;;;;6100141;28;83172;-59
2023/01/19 06:46:31;;;;;;;21.20;11.98;;;22.40;45.90;;;;;;6103490;28;83226;-58
2023/01/19 06:49:32;;;;;;;21.88;12.98;;;22.30;46.20;;;;;;6098301;28;82994;-60
2023/01/19 06:52:32;;;;;;;21.98;13.45;;;22.30;46.00;;;;;;6098436;28;83799;-60
2023/01/19 06:55:35;;;;;;;21.20;13.20;;;22.30;46.10;;;;;;6096148;28;83375;-49
2023/01/19 06:58:35;;;;;;;22.17;13.23;;;22.30;45.80;;;;;;6089089;28;88520;-51
2023/01/19 07:01:36;;;;;;;21.15;12.05;;;22.30;45.60;;;;;;6087687;28;83672;-50
2023/01/19 07:04:37;;;;;;;21.20;13.02;;;22.30;45.30;;;;;;6096942;28;83155;-50
2023/01/19 07:07:38;;;;;;;21.83;12.77;;;22.30;45.10;;;;;;6109750;28;84086;-51
2023/01/19 07:10:39;;;;;;;22.08;13.40;;;22.30;45.20;;;;;;6077024;28;87539;-46
2023/01/19 07:13:39;;;;;;;20.33;12.55;;;22.30;45.20;;;;;;6097873;28;83022;-48
2023/01/19 07:16:40;;;;;;;20.63;12.60;;;22.30;45.10;;;;;;6102138;28;86647;-58
2023/01/19 07:19:40;;;;;;;21.17;12.27;;;22.30;45.00;;;;;;6086985;28;85374;-59
2023/01/19 07:22:42;;;;;;;21.35;12.70;;;22.30;45.40;;;;;;6100740;28;83688;-57
2023/01/19 07:25:42;;;;;;;21.73;12.68;;;22.30;45.10;;;;;;6108584;28;82874;-57
2023/01/19 07:28:43;;;;;;;23.25;13.05;;;22.30;45.20;;;;;;6102421;28;87253;-57
2023/01/19 07:31:43;;;;;;;46.13;14.30;;;22.20;44.90;;;;;;6102938;28;83419;-57
2023/01/19 07:34:44;;;;;;;19.45;12.50;;;22.30;44.90;;;;;;6101837;28;84967;-48
2023/01/19 07:37:44;;;;;;;23.25;12.40;;;22.20;44.70;;;;;;6101266;28;82917;-47
2023/01/19 07:40:45;;;;;;;20.92;11.93;;;22.30;45.30;;;;;;6078702;28;83453;-58
2023/01/19 07:43:46;;;;;;;26.08;13.63;;;22.20;44.50;;;;;;6093701;28;83390;-49
2023/01/19 07:46:47;;;;;;;18.35;12.20;;;22.30;44.50;;;;;;6098593;28;82901;-60
2023/01/19 07:49:47;;;;;;;23.75;12.63;;;22.30;44.40;;;;;;6083077;28;85304;-60
2023/01/19 07:52:52;;;;;;;21.63;13.40;;;22.30;44.30;;;;;;6098357;28;83886;-53
2023/01/19 07:55:55;;;;;;;;;;;22.30;44.20;;;;;;6094636;28;84484;-52
2023/01/19 07:58:55;;;;;;;20.30;13.45;;;22.30;44.00;;;;;;6120132;28;83987;-53
2023/01/19 08:01:58;;;;;;;17.23;11.98;;;22.40;44.00;;;;;;6100048;28;85136;-53
2023/01/19 08:04:58;;;;;;;19.85;12.35;;;22.30;44.00;;;;;;6106717;28;83263;-51
2023/01/19 08:07:59;;;;;;;21.30;11.98;;;22.30;43.80;;;;;;6083642;28;83926;-51
2023/01/19 08:10:59;;;;;;;20.95;12.80;;;22.30;44.10;;;;;;6096499;28;86070;-51
2023/01/19 08:14:00;;;;;;;19.13;12.75;;;22.30;44.00;;;;;;6076916;28;84598;-51
2023/01/19 08:17:00;;;;;;;23.02;12.32;;;22.40;44.00;;;;;;6102349;28;83857;-53
2023/01/19 08:20:01;;;;;;;20.77;12.55;;;22.30;43.80;;;;;;6096785;28;83434;-52
2023/01/19 08:23:02;;;;;;;19.90;11.88;;;22.30;43.70;;;;;;6104688;28;83535;-49
2023/01/19 08:26:02;;;;;;;20.65;12.35;;;22.30;43.90;;;;;;6100015;28;83121;-62
2023/01/19 08:29:03;;;;;;;16.80;10.73;;;22.30;43.70;;;;;;6102082;28;83973;-66
2023/01/19 08:32:04;;;;;;;23.83;12.43;;;22.30;43.70;;;;;;6097925;28;83065;-66
2023/01/19 08:35:05;;;;;;;20.48;12.63;;;22.30;43.80;;;;;;6103064;28;84851;-64
2023/01/19 08:38:05;;;;;;;20.13;12.38;;;22.30;43.60;;;;;;6102256;28;83272;-63
2023/01/19 08:41:06;;;;;;;22.05;11.00;;;22.30;43.50;;;;;;6106176;28;83249;-63
2023/01/19 08:44:06;;;;;;;17.92;11.82;;;22.30;43.60;;;;;;6106012;28;83192;-52
2023/01/19 08:47:07;;;;;;;22.30;12.65;;;22.30;43.40;;;;;;6084878;28;86418;-63
2023/01/19 08:50:09;;;;;;;15.82;10.60;;;22.20;43.50;;;;;;6086208;28;84402;-62
2023/01/19 08:53:10;;;;;;;19.30;11.77;;;22.30;43.40;;;;;;6084681;28;83459;-61
2023/01/19 08:56:13;;;;;;;20.30;12.48;;;22.30;44.10;;;;;;6072125;28;86050;-63
2023/01/19 08:59:14;;;;;;;20.48;12.65;;;22.30;43.90;;;;;;6080133;28;85736;-61
2023/01/19 09:02:15;;;;;;;19.48;12.60;;;22.30;44.00;;;;;;6065212;28;85180;-61
2023/01/19 09:05:16;;;;;;;17.40;11.88;;;22.40;44.00;;;;;;6103682;28;83613;-60
2023/01/19 09:08:17;;;;;;;20.58;12.35;;;22.40;44.20;;;;;;6083492;28;84097;-58
2023/01/19 09:11:17;;;;;;;19.33;12.52;;;22.40;43.70;;;;;;6093358;28;82898;-52
2023/01/19 09:14:18;;;;;;;20.67;12.95;;;22.40;43.90;;;;;;6088911;28;83136;-50
2023/01/19 09:17:18;;;;;;;16.63;12.25;;;22.30;43.80;;;;;;6102482;28;83561;-48
2023/01/19 09:20:19;;;;;;;24.48;14.10;;;22.30;43.80;;;;;;6101837;28;83324;-50
2023/01/19 09:23:19;;;;;;;20.70;12.70;;;22.30;43.60;;;;;;6101660;28;83261;-49
2023/01/19 09:26:21;;;;;;;21.38;13.45;;;22.30;44.10;;;;;;6102068;28;82982;-51
2023/01/19 09:29:21;;;;;;;26.55;14.20;;;22.30;44.00;;;;;;6101704;28;84140;-50
2023/01/19 09:32:22;;;;;;;24.45;15.00;;;22.30;45.10;;;;;;6101872;28;82761;-50
2023/01/19 09:35:22;;;;;;;32.50;15.45;;;22.30;45.00;;;;;;6098941;28;83603;-47
2023/01/19 09:38:24;;;;;;;31.27;14.68;;;22.30;45.50;;;;;;6101552;28;83317;-47
2023/01/19 09:41:25;;;;;;;28.00;16.20;;;22.30;45.90;;;;;;6110756;28;83532;-53
2023/01/19 09:44:25;;;;;;;22.42;14.15;;;22.30;46.50;;;;;;6101195;28;83836;-51
2023/01/19 09:47:26;;;;;;;25.63;15.82;;;22.30;47.00;;;;;;6092522;28;82929;-50
2023/01/19 09:50:26;;;;;;;32.55;16.33;;;22.30;47.50;;;;;;6085753;28;83683;-49
2023/01/19 09:53:27;;;;;;;33.65;16.67;;;22.30;47.70;;;;;;6096800;28;83934;-61
2023/01/19 09:56:28;;;;;;;25.50;15.82;;;22.30;47.80;;;;;;6096689;28;83174;-59
2023/01/19 09:59:28;;;;;;;27.27;15.27;;;22.30;47.60;;;;;;6082202;28;83326;-60
2023/01/19 10:02:29;;;;;;;27.65;17.25;;;22.30;47.40;;;;;;6098619;28;83248;-63
2023/01/19 10:05:29;;;;;;;22.98;14.65;;;22.30;47.10;;;;;;6087153;28;82824;-52
2023/01/19 10:08:30;;;;;;;24.55;15.02;;;22.30;46.60;;;;;;6098935;28;86021;-50
2023/01/19 10:11:31;;;;;;;25.42;15.10;;;22.30;46.60;;;;;;6084389;28;82742;-50
2023/01/19 10:14:31;;;;;;;25.25;15.45;;;22.30;46.60;;;;;;6084893;28;83010;-51
2023/01/19 10:17:32;;;;;;;24.05;15.20;;;22.30;47.50;;;;;;6096714;28;82891;-51
2023/01/19 10:20:32;;;;;;;23.65;15.85;;;22.30;47.60;;;;;;6092567;28;84496;-50
2023/01/19 10:23:33;;;;;;;24.30;16.40;;;22.40;48.20;;;;;;6109495;28;83982;-48
2023/01/19 10:26:35;;;;;;;26.60;16.42;;;22.30;48.40;;;;;;6093846;28;84139;-51
2023/01/19 10:29:36;;;;;;;23.35;14.18;;;22.40;48.30;;;;;;6096115;28;84951;-49
2023/01/19 10:32:37;;;;;;;22.05;14.82;;;22.40;48.20;;;;;;6099834;28;82874;-50
2023/01/19 10:35:37;;;;;;;26.40;14.40;;;22.40;47.70;;;;;;6084474;28;83713;-49
2023/01/19 10:38:38;;;;;;;26.33;14.65;;;22.40;47.40;;;;;;6098483;28;83121;-52
2023/01/19 10:41:38;;;;;;;24.67;15.20;;;22.40;47.20;;;;;;6089728;28;83625;-48
2023/01/19 10:44:39;;;;;;;24.67;15.13;;;22.40;46.80;;;;;;6078225;28;84722;-52
2023/01/19 10:47:39;;;;;;;23.00;15.07;;;22.40;46.70;;;;;;6087483;28;83185;-48
2023/01/19 10:50:40;;;;;;;22.30;15.05;;;22.40;46.30;;;;;;6078297;28;82734;-50
2023/01/19 10:53:40;;;;;;;25.00;14.68;;;22.40;46.10;;;;;;6077881;28;83589;-49
2023/01/19 10:56:42;;;;;;;24.55;13.90;;;22.40;46.00;;;;;;6082036;28;82951;-50
2023/01/19 10:59:42;;;;;;;20.30;13.45;;;22.40;45.80;;;;;;6096071;28;84158;-51
2023/01/19 11:02:43;;;;;;;21.33;13.43;;;22.40;45.60;;;;;;6086724;28;84302;-50
2023/01/19 11:05:43;;;;;;;23.45;14.32;;;22.40;45.50;;;;;;6098662;28;83532;-46
2023/01/19 11:08:44;;;;;;;23.48;13.70;;;22.50;45.40;;;;;;6096718;28;84939;-49
2023/01/19 11:11:44;;;;;;;19.23;12.93;;;22.50;45.20;;;;;;6091974;28;83292;-49
2023/01/19 11:14:45;;;;;;;22.52;13.95;;;22.50;45.10;;;;;;6094087;28;83064;-51
2023/01/19 11:17:47;;;;;;;20.65;12.88;;;22.50;44.90;;;;;;6091996;28;83053;-49
2023/01/19 11:20:47;;;;;;;21.38;13.18;;;22.50;44.80;;;;;;6095055;28;83582;-47
2023/01/19 11:23:49;;;;;;;20.05;13.38;;;22.50;44.70;;;;;;6091403;28;82828;-51
2023/01/19 11:26:50;;;;;;;19.67;13.02;;;22.50;44.60;;;;;;6065186;28;87212;-57
2023/01/19 11:29:51;;;;;;;27.08;13.02;;;22.50;44.60;;;;;;6097548;28;83451;-50
2023/01/19 11:32:51;;;;;;;20.80;12.77;;;22.50;44.70;;;;;;6103188;28;83092;-57
2023/01/19 11:35:52;;;;;;;20.45;12.45;;;22.50;44.40;;;;;;6101779;28;83545;-52
2023/01/19 11:38:52;;;;;;;20.40;11.85;;;22.50;44.40;;;;;;6090212;28;83322;-52
2023/01/19 11:41:53;;;;;;;18.08;11.73;;;22.50;44.50;;;;;;6090251;28;84429;-52
2023/01/19 11:44:54;;;;;;;20.77;12.85;;;22.50;44.30;;;;;;6082632;28;84596;-47
2023/01/19 11:47:55;;;;;;;19.90;12.73;;;22.50;44.10;;;;;;6096463;28;82877;-49
2023/01/19 11:50:56;;;;;;;21.38;11.35;;;22.40;44.00;;;;;;6101231;28;83218;-51
2023/01/19 11:53:56;;;;;;;19.95;11.98;;;22.40;44.20;;;;;;6091644;28;82920;-53
2023/01/19 11:56:57;;;;;;;19.58;12.07;;;22.40;44.50;;;;;;6079704;28;85889;-47
2023/01/19 12:00:02;;;;;;;16.63;11.55;;;22.40;45.00;;;;;;6095183;28;83588;-46
2023/01/19 12:03:06;;;;;;;17.45;11.27;;;22.40;45.70;;;;;;6093869;28;83259;-49
2023/01/19 12:06:07;;;;;;;15.82;10.73;;;22.40;45.00;;;;;;6083831;28;85308;-50
2023/01/19 12:09:08;;;;;;;14.63;10.90;;;22.40;45.00;;;;;;6076324;28;86583;-57
2023/01/19 12:12:08;;;;;;;15.52;10.48;;;22.40;44.90;;;;;;6091240;28;84150;-57
2023/01/19 12:15:09;;;;;;;14.85;10.18;;;22.40;44.90;;;;;;6090565;28;83102;-58
2023/01/19 12:18:09;;;;;;;14.75;9.77;;;22.40;45.00;;;;;;6100917;28;83294;-57
2023/01/19 12:21:10;;;;;;;18.90;9.73;;;22.40;45.00;;;;;;6105578;28;83059;-58
2023/01/19 12:24:10;;;;;;;19.58;11.32;;;22.40;44.90;;;;;;6105245;28;80759;-58
2023/01/19 12:27:11;;;;;;;15.30;10.30;;;22.40;44.70;;;;;;6093339;28;83956;-59
2023/01/19 12:30:11;;;;;;;14.52;10.48;;;22.40;44.60;;;;;;6089938;28;83003;-60
2023/01/19 12:33:12;;;;;;;17.38;10.50;;;22.40;44.60;;;;;;6064611;28;83834;-59
2023/01/19 12:36:13;;;;;;;13.70;9.55;;;22.40;44.70;;;;;;6074913;28;84042;-58
2023/01/19 12:39:13;;;;;;;15.82;10.13;;;22.40;44.80;;;;;;6099434;28;83521;-58
2023/01/19 12:42:14;;;;;;;14.38;10.20;;;22.40;44.80;;;;;;6064417;28;85962;-57
2023/01/19 12:45:14;;;;;;;13.90;10.05;;;22.40;44.80;;;;;;6074755;28;83890;-57
2023/01/19 12:48:15;;;;;;;14.60;10.02;;;22.40;44.70;;;;;;6086049;28;84797;-58
2023/01/19 12:51:15;;;;;;;16.27;10.18;;;22.40;44.70;;;;;;6085678;28;83923;-58
2023/01/19 12:54:16;;;;;;;14.55;10.15;;;22.40;44.50;;;;;;6077056;28;83460;-58
2023/01/19 12:57:17;;;;;;;17.65;10.75;;;22.40;44.40;;;;;;6093863;28;82775;-59
2023/01/19 13:00:17;;;;;;;13.48;9.75;;;22.40;44.50;;;;;;6080263;28;85736;-58
2023/01/19 13:03:18;;;;;;;13.82;9.23;;;22.40;44.30;;;;;;6090706;28;83085;-59
2023/01/19 13:06:18;;;;;;;14.10;9.65;;;22.40;44.30;;;;;;6085636;28;81314;-59
2023/01/19 13:09:19;;;;;;;14.05;10.05;;;22.40;44.30;;;;;;6080714;28;80661;-59
2023/01/19 13:12:20;;;;;;;13.50;9.63;;;22.40;44.30;;;;;;6086437;28;86317;-59
2023/01/19 13:15:20;;;;;;;12.95;9.60;;;22.40;44.30;;;;;;6091291;28;82299;-59
2023/01/19 13:18:21;;;;;;;14.05;10.35;;;22.40;44.30;;;;;;6092698;28;80996;-59
2023/01/19 13:21:21;;;;;;;15.45;10.10;;;22.40;44.10;;;;;;6087065;28;85581;-59
2023/01/19 13:24:22;;;;;;;14.93;10.13;;;22.40;44.30;;;;;;6086355;28;83381;-59
2023/01/19 13:27:27;;;;;;;13.85;9.57;;;22.40;43.90;;;;;;6094691;28;84777;-59
2023/01/19 13:30:27;;;;;;;17.07;11.13;;;22.40;43.80;;;;;;6090403;28;83999;-58
2023/01/19 13:33:28;;;;;;;15.43;11.30;;;22.30;43.80;;;;;;6100965;28;89864;-62
2023/01/19 13:36:29;;;;;;;16.00;10.65;;;22.30;43.90;;;;;;6084111;28;87359;-62
2023/01/19 13:39:29;;;;;;;15.38;11.23;;;22.40;44.10;;;;;;6083694;28;83810;-60
2023/01/19 13:42:30;;;;;;;17.00;10.98;;;22.40;44.10;;;;;;6091930;28;83165;-49
2023/01/19 13:45:32;;;;;;;25.73;12.77;;;22.40;44.70;;;;;;6100446;28;83339;-57
2023/01/19 13:48:32;;;;;;;29.52;14.68;;;22.40;45.70;;;;;;6082964;28;86396;-56
2023/01/19 13:51:33;;;;;;;32.22;15.07;;;22.40;46.90;;;;;;6089489;28;83515;-50
2023/01/19 13:54:33;;;;;;;28.65;15.57;;;22.40;46.70;;;;;;6100221;28;83328;-48
2023/01/19 13:57:34;;;;;;;32.13;14.57;;;22.40;47.10;;;;;;6099609;28;83633;-51
2023/01/19 14:00:34;;;;;;;29.65;14.25;;;22.40;47.10;;;;;;6090269;28;84007;-51
2023/01/19 14:03:35;;;;;;;25.58;14.98;;;22.40;47.20;;;;;;6098390;28;84454;-50
2023/01/19 14:06:35;;;;;;;27.20;14.10;;;22.40;47.20;;;;;;6100012;28;84619;-49
2023/01/19 14:09:36;;;;;;;25.58;14.00;;;22.40;46.90;;;;;;6085795;28;86501;-50
2023/01/19 14:12:37;;;;;;;21.88;13.13;;;22.40;47.50;;;;;;6092734;28;86478;-48
2023/01/19 14:15:39;;;;;;;24.75;14.07;;;22.40;49.50;;;;;;6099029;28;83071;-48
2023/01/19 14:18:40;;;;;;;24.92;13.93;;;22.50;48.80;;;;;;6098898;28;83631;-49
2023/01/19 14:21:40;;;;;;;20.52;13.00;;;22.40;50.40;;;;;;6089373;28;89580;-48
2023/01/19 14:24:41;;;;;;;22.50;13.60;;;22.50;49.80;;;;;;6104096;28;83214;-48
2023/01/19 14:27:41;;;;;;;23.20;13.65;;;22.50;49.40;;;;;;6104811;28;86582;-47
2023/01/19 14:30:42;;;;;;;23.80;13.05;;;22.50;49.30;;;;;;6102292;28;83827;-52
2023/01/19 14:33:44;;;;;;;22.55;13.38;;;22.50;48.70;;;;;;6103102;28;83865;-49
2023/01/19 14:36:44;;;;;;;24.15;13.65;;;22.50;48.10;;;;;;6101611;28;83235;-51
2023/01/19 14:39:45;;;;;;;19.55;12.95;;;22.50;48.20;;;;;;6102903;28;84960;-51
2023/01/19 14:42:45;;;;;;;20.92;12.93;;;22.50;48.20;;;;;;6092008;28;88037;-51
2023/01/19 14:45:46;;;;;;;18.60;11.82;;;22.50;47.80;;;;;;6100416;28;83060;-49
2023/01/19 14:48:46;;;;;;;20.75;12.57;;;22.50;47.50;;;;;;6093133;28;83530;-49
2023/01/19 14:51:47;;;;;;;24.90;12.35;;;22.50;47.30;;;;;;6101305;28;83714;-51
2023/01/19 14:54:48;;;;;;;20.48;12.50;;;22.50;47.40;;;;;;6101423;28;82982;-59
2023/01/19 14:57:48;;;;;;;23.85;13.07;;;22.50;47.20;;;;;;6082689;28;83700;-58
2023/01/19 15:00:49;;;;;;;21.02;12.30;;;22.40;46.90;;;;;;6104532;28;87993;-58
2023/01/19 15:03:49;;;;;;;20.63;12.48;;;22.50;46.70;;;;;;6100701;28;84097;-59
2023/01/19 15:06:50;;;;;;;23.17;12.93;;;22.50;46.50;;;;;;6102609;28;83844;-59
2023/01/19 15:09:50;;;;;;;17.92;11.77;;;22.40;46.40;;;;;;6100368;28;86774;-59
2023/01/19 15:12:51;;;;;;;22.02;12.52;;;22.40;46.10;;;;;;6086984;28;82647;-60
2023/01/19 15:15:51;;;;;;;19.95;12.65;;;22.40;46.40;;;;;;6096648;28;83888;-60
2023/01/19 15:18:52;;;;;;;17.73;11.52;;;22.40;46.40;;;;;;6102042;28;84304;-59
2023/01/19 15:21:52;;;;;;;16.25;11.23;;;22.40;46.20;;;;;;6097812;28;83549;-59
2023/01/19 15:24:56;;;;;;;17.23;10.73;;;22.40;45.90;;;;;;6096953;28;83688;-58
2023/01/19 15:27:56;;;;;;;24.73;11.27;;;22.40;46.10;;;;;;6102133;28;83401;-59